Orbital elements of COSMOS 2251 DEB
| Launched | 15 June 1993 |
| Flight ended | – |
| Launch site | Plesetsk Missile and Space Complex, Russia |
| Owner | Commonwealth of Independent States (former USSR) |
| NORAD ID | 33848 |
| Date fetched |
Epoch osculation |
Inc. [°] |
Ecc. | RA asc node [hr] |
Arg Peri. [°] |
Mean anom [°] |
Mean motion [rev/day] |
Abs. mag |
| Date fetched |
Epoch osculation |
Inc. [°] |
Ecc. | RA asc node [hr] |
Arg Peri. [°] |
Mean anom [°] |
Mean motion [rev/day] |
Abs. mag |
| 2026 May 04 17:57 | 2026 Apr 30 09:26:58 | 74.0287 | 0.00416 | 6.6280 | 128.4778 | 23.0048 | 14.45108 | – |
| 2026 May 03 17:57 | 2026 Apr 30 09:26:58 | 74.0287 | 0.00416 | 6.6280 | 128.4778 | 23.0048 | 14.45108 | – |
| 2026 May 02 17:57 | 2026 Apr 30 09:26:58 | 74.0287 | 0.00416 | 6.6280 | 128.4778 | 23.0048 | 14.45108 | – |
| 2026 May 01 17:56 | 2026 Apr 30 09:26:58 | 74.0287 | 0.00416 | 6.6280 | 128.4778 | 23.0048 | 14.45108 | – |
| 2026 Apr 30 17:56 | 2026 Apr 30 09:26:58 | 74.0287 | 0.00416 | 6.6280 | 128.4778 | 23.0048 | 14.45108 | – |
| 2026 Apr 29 17:57 | 2026 Apr 24 10:34:07 | 74.0277 | 0.00418 | 7.3678 | 141.3686 | 23.0048 | 14.45108 | – |
| 2026 Apr 28 17:56 | 2026 Apr 24 10:34:07 | 74.0277 | 0.00418 | 7.3678 | 141.3686 | 23.0048 | 14.45108 | – |
| 2026 Apr 27 17:58 | 2026 Apr 24 10:34:07 | 74.0277 | 0.00418 | 7.3678 | 141.3686 | 23.0048 | 14.45108 | – |
| 2026 Apr 26 17:58 | 2026 Apr 24 10:34:07 | 74.0277 | 0.00418 | 7.3678 | 141.3686 | 23.0048 | 14.45108 | – |
| 2026 Apr 25 17:58 | 2026 Apr 24 10:34:07 | 74.0277 | 0.00418 | 7.3678 | 141.3686 | 23.0048 | 14.45108 | – |
| 2026 Apr 24 17:59 | 2026 Apr 24 10:34:07 | 74.0277 | 0.00418 | 7.3678 | 141.3686 | 23.0048 | 14.45108 | – |
| 2026 Apr 23 17:57 | 2026 Apr 19 06:59:15 | 74.0278 | 0.00420 | 8.0076 | 152.4392 | 23.0048 | 14.45108 | – |
| 2026 Apr 22 17:57 | 2026 Apr 19 06:59:15 | 74.0278 | 0.00420 | 8.0076 | 152.4392 | 23.0048 | 14.45108 | – |
| 2026 Apr 21 17:57 | 2026 Apr 19 06:59:15 | 74.0278 | 0.00420 | 8.0076 | 152.4392 | 23.0048 | 14.45108 | – |
| 2026 Apr 20 17:57 | 2026 Apr 19 06:59:15 | 74.0278 | 0.00420 | 8.0076 | 152.4392 | 23.0048 | 14.45108 | – |
| 2026 Apr 19 17:58 | 2026 Apr 19 06:59:15 | 74.0278 | 0.00420 | 8.0076 | 152.4392 | 23.0048 | 14.45108 | – |
| 2026 Apr 18 17:56 | 2026 Apr 13 01:31:03 | 74.0290 | 0.00423 | 8.7814 | 165.6287 | 23.0048 | 14.45108 | – |
| 2026 Apr 16 17:57 | 2026 Apr 13 01:31:03 | 74.0290 | 0.00423 | 8.7814 | 165.6287 | 23.0048 | 14.45108 | – |
| 2026 Apr 14 17:57 | 2026 Apr 13 01:31:03 | 74.0290 | 0.00423 | 8.7814 | 165.6287 | 23.0048 | 14.45108 | – |
| 2026 Apr 13 17:57 | 2026 Apr 13 01:31:03 | 74.0290 | 0.00423 | 8.7814 | 165.6287 | 23.0048 | 14.45108 | – |
| 2026 Apr 12 17:57 | 2026 Apr 08 13:54:56 | 74.0295 | 0.00426 | 9.3384 | 174.9505 | 23.0048 | 14.45108 | – |
| 2026 Apr 11 17:57 | 2026 Apr 08 13:54:56 | 74.0295 | 0.00426 | 9.3384 | 174.9505 | 23.0048 | 14.45108 | – |
| 2026 Apr 10 17:58 | 2026 Apr 08 13:54:56 | 74.0295 | 0.00426 | 9.3384 | 174.9505 | 23.0048 | 14.45108 | – |
| 2026 Apr 09 18:01 | 2026 Apr 08 13:54:56 | 74.0295 | 0.00426 | 9.3384 | 174.9505 | 23.0048 | 14.45108 | – |
| 2026 Apr 08 17:57 | 2026 Apr 08 13:54:56 | 74.0295 | 0.00426 | 9.3384 | 174.9505 | 23.0048 | 14.45108 | – |
| 2026 Apr 07 17:57 | 2026 Apr 02 04:48:26 | 74.0307 | 0.00430 | 10.1310 | 188.0303 | 23.0048 | 14.45108 | – |